METAR Data
IDs: Format: Raw Decoded Include TAF

Data at: 0952 UTC 18 Jan 2022

KBJC 180935Z AUTO 25003KT 10SM CLR 04/M08 A2983 RMK AO2
KBJC 180915Z AUTO 00000KT 10SM CLR 03/M08 A2983 RMK AO2
KBJC 180855Z AUTO 15003KT 10SM CLR 03/M08 A2983 RMK AO2
KBJC 180835Z AUTO 00000KT 10SM CLR 05/M10 A2984 RMK AO2
KBJC 180815Z AUTO 00000KT 10SM CLR 02/M08 A2983 RMK AO2
KBJC 180755Z AUTO 00000KT 10SM CLR 04/M09 A2984 RMK AO2
KBJC 180735Z AUTO 31005KT 10SM CLR 03/M08 A2985 RMK AO2
KBJC 180715Z AUTO 33006KT 10SM CLR 03/M08 A2986 RMK AO2
KBJC 180655Z AUTO 18003KT 10SM CLR 03/M08 A2986 RMK AO2
KBJC 180635Z AUTO 32004KT 10SM CLR 04/M08 A2987 RMK AO2
KBJC 180615Z AUTO 33006KT 10SM CLR 05/M08 A2987 RMK AO2
KBJC 180555Z AUTO 33005KT 10SM CLR 06/M08 A2988 RMK AO2
KBJC 180535Z AUTO 31003KT 10SM CLR 04/M08 A2988 RMK AO2
KBJC 180515Z AUTO 00000KT 10SM CLR 05/M08 A2988 RMK AO2
KBJC 180455Z 28006KT 10SM BKN150 08/M08 A2988
KBJC 180355Z 33006KT 10SM BKN150 05/M07 A2989
KBJC 180254Z 35011KT 10SM BKN150 06/M06 A2989
KBJC 180145Z 00000KT 10SM BKN150 09/M07 A2989
KBJC 180050Z 23005KT 10SM BKN150 08/M06 A2989
KBJC 172345Z 21003KT 10SM BKN150 09/M07 A2989
KBJC 172248Z 00000KT 10SM BKN150 09/M06 A2989
KBJC 172153Z 04006KT 10SM BKN150 10/M06 A2990
KBJC 172055Z 35004KT 10SM BKN150 10/M06 A2990
KBJC 172018Z 22003KT 10SM BKN150 13/M09 A2990
KBJC 171845Z 17006KT 10SM BKN150 12/M10 A2994
KBJC 171745Z 16007KT 10SM BKN150 10/M10 A2995
KBJC 171645Z 17008KT 10SM BKN150 09/M10 A2996
KBJC 171550Z 27013G20KT 10SM SCT150 14/M15 A2995
KBJC 171445Z 29016G26KT 10SM SCT150 10/M16 A2994
KBJC 171345Z 29016G22KT 10SM SCT150 06/M13 A2995
KBJC 171245Z 30010KT 10SM SCT200 01/M09 A2994
KBJC 171235Z AUTO 24007KT 10SM CLR 01/M08 A2994 RMK AO2
KBJC 171215Z AUTO 00000KT 10SM CLR 00/M08 A2995 RMK AO2
KBJC 171155Z AUTO 19003KT 10SM CLR 00/M08 A2995 RMK AO2
KBJC 171135Z AUTO 19004KT 10SM CLR 00/M08 A2994 RMK AO2
KBJC 171115Z AUTO 00000KT 10SM CLR 00/M08 A2995 RMK AO2
KBJC 171055Z AUTO 19003KT 10SM CLR 00/M08 A2995 RMK AO2
KBJC 171035Z AUTO 18005KT 10SM CLR 00/M08 A2996 RMK AO2
KBJC 171015Z AUTO 17004KT 10SM CLR M01/M07 A2997 RMK AO2
KBJC 170955Z AUTO 22006KT 10SM CLR 00/M08 A2997 RMK AO2
KBJC 170935Z AUTO 22005KT 10SM CLR M01/M07 A2998 RMK AO2
KBJC 170915Z AUTO 24003KT 10SM CLR M01/M08 A2999 RMK AO2
KBJC 170855Z AUTO 25004KT 10SM CLR M02/M08 A2999 RMK AO2
KBJC 170835Z AUTO 00000KT 10SM CLR M01/M08 A3000 RMK AO2
KBJC 170815Z AUTO 00000KT 10SM CLR M02/M08 A3001 RMK AO2
KBJC 170755Z AUTO 00000KT 10SM CLR M01/M08 A3002 RMK AO2
KBJC 170735Z AUTO 00000KT 10SM CLR 00/M08 A3003 RMK AO2
KBJC 170715Z AUTO 34003KT 10SM CLR 00/M07 A3004 RMK AO2
KBJC 170655Z AUTO 02004KT 10SM CLR 00/M07 A3005 RMK AO2
KBJC 170635Z AUTO 31003KT 10SM CLR 00/M07 A3006 RMK AO2
KBJC 170615Z AUTO 30003KT 10SM CLR 00/M07 A3006 RMK AO2
KBJC 170555Z AUTO 00000KT 10SM CLR 00/M07 A3007 RMK AO2
KBJC 170535Z AUTO 00000KT 10SM CLR 00/M07 A3007 RMK AO2
KBJC 170515Z AUTO 00000KT 10SM CLR 00/M07 A3008 RMK AO2
KBJC 170448Z 16004KT 10SM SCT200 00/M07 A3008
KBJC 170349Z 17004KT 10SM SCT200 01/M08 A3011
KBJC 170245Z 00000KT 10SM SCT200 02/M09 A3014
KBJC 170145Z 00000KT 10SM SCT200 03/M09 A3015
KBJC 170054Z 00000KT 10SM SCT200 04/M09 A3014
KBJC 162355Z 04005KT 10SM SCT200 04/M09 A3013
KBJC 162245Z 06009KT 10SM BKN200 08/M10 A3012